Time;durP1;ratioP1;P1;durP2;ratioP2;P2;SDS_P1;SDS_P2;PMS_P1;PMS_P2;Temp;Humidity;BMP_temperature;BMP_pressure;BME280_temperature;BME280_humidity;BME280_pressure;Samples;Min_cycle;Max_cycle;Signal;HPM_P1;HPM_P2
2021/03/23 00:00:49;;;;;;;19.55;14.60;;;;;;;-0.25;74.32;96769.59;1721255;81;21171;-85
2021/03/23 00:03:29;;;;;;;23.83;15.55;;;;;;;-0.24;74.33;96766.12;1724606;81;21267;-84
2021/03/23 00:05:55;;;;;;;22.40;15.30;;;;;;;-0.22;74.28;96769.84;1740015;81;21140;-85
2021/03/23 00:08:35;;;;;;;24.57;15.53;;;;;;;-0.20;74.21;96771.37;1739711;81;21137;-84
2021/03/23 00:11:05;;;;;;;24.65;16.25;;;;;;;-0.19;74.19;96772.18;1738407;81;21153;-84
2021/03/23 00:13:31;;;;;;;20.15;15.30;;;;;;;-0.18;74.04;96775.91;1744666;81;21145;-85
2021/03/23 00:15:57;;;;;;;24.37;17.35;;;;;;;-0.17;74.08;96778.81;1737828;81;21260;-84
2021/03/23 00:18:23;;;;;;;21.90;15.40;;;;;;;-0.13;73.84;96780.25;1753774;80;21507;-84
2021/03/23 00:20:49;;;;;;;19.92;13.88;;;;;;;-0.10;73.95;96778.76;1727444;82;21146;-84
2021/03/23 00:23:15;;;;;;;23.83;16.50;;;;;;;-0.10;73.84;96766.45;1718371;81;21141;-85
2021/03/23 00:25:41;;;;;;;21.55;13.78;;;;;;;-0.11;73.61;96776.31;1719874;82;21130;-84
2021/03/23 00:28:07;;;;;;;22.77;16.42;;;;;;;-0.08;73.78;96768.44;1780109;79;21153;-84
2021/03/23 00:30:34;;;;;;;23.57;16.80;;;;;;;-0.09;73.64;96777.84;1754829;80;21125;-84
2021/03/23 00:33:00;;;;;;;23.73;15.63;;;;;;;-0.06;73.44;96772.51;1790449;79;21216;-84
2021/03/23 00:35:26;;;;;;;23.83;16.37;;;;;;;-0.04;73.75;96768.56;1777233;79;21124;-84
2021/03/23 00:37:56;;;;;;;24.40;16.80;;;;;;;-0.06;73.38;96769.95;1790058;79;21121;-84
2021/03/23 00:40:26;;;;;;;21.23;15.35;;;;;;;-0.03;73.13;96777.40;1764818;81;21148;-84
2021/03/23 00:42:52;;;;;;;23.87;14.73;;;;;;;0.02;73.23;96773.73;1741120;81;21300;-85
2021/03/23 00:45:18;;;;;;;20.95;13.90;;;;;;;0.02;73.28;96775.02;1718205;81;21077;-84
2021/03/23 00:47:45;;;;;;;21.27;15.35;;;;;;;0.03;73.35;96768.52;1720819;82;21133;-84
2021/03/23 00:50:11;;;;;;;23.02;15.00;;;;;;;0.02;73.32;96767.34;1738071;82;21085;-85
2021/03/23 00:52:37;;;;;;;22.45;15.40;;;;;;;0.02;73.38;96762.23;1734281;81;21737;-84
2021/03/23 00:55:05;;;;;;;19.90;13.90;;;;;;;0.01;73.37;96766.53;1738756;82;21085;-84
2021/03/23 00:57:31;;;;;;;21.33;13.45;;;;;;;0.02;73.33;96767.34;1738080;81;21147;-84
2021/03/23 00:59:57;;;;;;;19.80;14.78;;;;;;;0.02;73.25;96765.61;1722689;81;21359;-84
2021/03/23 01:02:23;;;;;;;22.05;13.88;;;;;;;0.03;73.36;96757.48;1719534;82;21153;-85
2021/03/23 01:04:50;;;;;;;20.00;13.03;;;;;;;0.02;73.19;96763.05;1710467;82;21360;-84
2021/03/23 01:07:16;;;;;;;24.37;14.68;;;;;;;0.06;73.28;96761.09;1736524;81;21175;-84
2021/03/23 01:09:43;;;;;;;18.07;12.23;;;;;;;0.11;73.19;96770.05;1723307;81;21278;-84
2021/03/23 01:12:10;;;;;;;23.05;13.35;;;;;;;0.13;72.99;96765.64;1710880;82;21181;-84
2021/03/23 01:14:37;;;;;;;20.72;13.30;;;;;;;0.15;73.08;96758.69;1715387;82;21101;-84
2021/03/23 01:17:05;;;;;;;24.92;17.62;;;;;;;0.15;72.86;96762.52;1706423;82;21118;-84
2021/03/23 01:19:31;;;;;;;30.02;21.97;;;;;;;0.15;72.35;96761.70;1708144;82;21486;-84
2021/03/23 01:21:57;;;;;;;28.62;19.85;;;;;;;0.18;71.99;96764.06;1754486;81;21164;-84
2021/03/23 01:24:23;;;;;;;25.23;17.25;;;;;;;0.21;71.90;96772.33;1730725;81;21180;-84
2021/03/23 01:26:49;;;;;;;32.40;20.08;;;;;;;0.21;71.79;96770.23;1726216;82;21164;-84
2021/03/23 01:29:15;;;;;;;32.08;21.65;;;;;;;0.20;71.74;96771.16;1722071;81;21255;-84
2021/03/23 01:31:41;;;;;;;34.50;21.40;;;;;;;0.22;71.74;96773.14;1729456;81;21164;-84
2021/03/23 01:34:07;;;;;;;32.00;20.92;;;;;;;0.14;71.69;96762.16;1723945;81;21140;-83
2021/03/23 01:36:33;;;;;;;23.15;15.98;;;;;;;0.21;71.79;96768.49;1723852;82;21174;-84
2021/03/23 01:38:59;;;;;;;27.15;18.40;;;;;;;0.18;71.38;96770.45;1728066;81;21148;-84
2021/03/23 01:41:25;;;;;;;29.48;19.37;;;;;;;0.15;71.58;96768.91;1729246;81;21109;-84
2021/03/23 01:43:52;;;;;;;26.68;17.65;;;;;;;0.13;71.63;96766.92;1724780;81;21129;-84
2021/03/23 01:46:41;;;;;;;26.42;17.07;;;;;;;0.11;71.43;96771.33;1720743;82;21443;-84
2021/03/23 01:49:24;;;;;;;25.80;15.95;;;;;;;0.13;71.38;96761.00;1725367;81;21304;-84
2021/03/23 01:51:53;;;;;;;21.20;12.00;;;;;;;0.12;71.33;96747.87;1723444;82;21168;-84
2021/03/23 01:54:30;;;;;;;26.77;15.93;;;;;;;0.12;71.33;96747.87;1723600;81;21563;-84
2021/03/23 01:56:59;;;;;;;26.27;16.42;;;;;;;0.13;71.16;96757.16;1723870;82;21372;-84
2021/03/23 01:59:25;;;;;;;23.45;14.73;;;;;;;0.16;70.91;96759.50;1721803;81;21159;-84
2021/03/23 02:01:51;;;;;;;20.75;12.98;;;;;;;0.18;71.02;96755.13;1722660;82;21153;-84
2021/03/23 02:04:17;;;;;;;26.23;15.35;;;;;;;0.21;70.93;96760.83;1723056;81;21271;-84
2021/03/23 02:06:49;;;;;;;15.88;11.93;;;;;;;0.22;71.20;96760.36;1722612;82;21124;-84
2021/03/23 02:09:26;;;;;;;20.48;13.22;;;;;;;0.19;71.09;96754.20;1722203;81;21311;-84
2021/03/23 02:11:55;;;;;;;22.55;13.38;;;;;;;0.16;71.19;96755.23;1724038;81;21275;-84
2021/03/23 02:14:25;;;;;;;20.77;13.18;;;;;;;0.20;71.54;96753.27;1726271;81;21121;-84
2021/03/23 02:16:51;;;;;;;27.50;14.78;;;;;;;0.20;71.07;96755.36;1672388;82;21406;-84
2021/03/23 02:19:21;;;;;;;21.40;13.00;;;;;;;0.24;70.94;96752.13;1693262;82;21166;-84
2021/03/23 02:21:48;;;;;;;19.07;13.55;;;;;;;0.22;70.84;96759.09;1722886;81;21155;-84
2021/03/23 02:24:15;;;;;;;22.17;13.55;;;;;;;0.24;70.86;96759.33;1722563;81;21161;-84
2021/03/23 02:26:42;;;;;;;20.08;12.53;;;;;;;0.26;70.73;96754.92;1724816;82;21485;-84
2021/03/23 02:29:15;;;;;;;16.15;11.05;;;;;;;0.25;70.70;96755.03;1723097;82;21108;-84
2021/03/23 02:31:49;;;;;;;16.23;11.03;;;;;;;0.23;70.81;96755.60;1692516;82;21169;-84
2021/03/23 02:34:18;;;;;;;18.52;13.05;;;;;;;0.20;70.57;96751.99;1724271;81;21169;-84
2021/03/23 02:36:44;;;;;;;20.45;12.50;;;;;;;0.20;70.72;96748.16;1712582;82;21512;-84
2021/03/23 02:39:14;;;;;;;21.93;13.18;;;;;;;0.19;70.85;96761.40;1733880;81;21144;-84
2021/03/23 02:41:40;;;;;;;20.45;13.08;;;;;;;0.22;70.77;96748.41;1724534;82;21280;-84
2021/03/23 02:44:06;;;;;;;20.02;12.30;;;;;;;0.23;70.76;96759.44;1722622;81;21183;-84
2021/03/23 02:46:33;;;;;;;19.98;12.50;;;;;;;0.27;70.92;96755.27;1721393;82;21501;-84
2021/03/23 02:48:59;;;;;;;18.35;12.43;;;;;;;0.25;70.31;96753.75;1724018;82;21133;-84
2021/03/23 02:51:25;;;;;;;17.30;10.13;;;;;;;0.28;70.76;96759.91;1723347;81;21166;-84
2021/03/23 02:53:51;;;;;;;19.45;12.05;;;;;;;0.26;70.28;96751.08;1724386;82;21409;-84
2021/03/23 02:56:17;;;;;;;19.40;11.33;;;;;;;0.27;70.25;96760.84;1723590;82;21380;-84
2021/03/23 02:58:44;;;;;;;18.35;10.35;;;;;;;0.30;70.47;96753.77;1724668;82;21400;-84
2021/03/23 03:01:11;;;;;;;16.97;10.80;;;;;;;0.27;70.07;96751.44;1723592;81;21283;-84
2021/03/23 03:03:37;;;;;;;16.70;10.85;;;;;;;0.27;70.17;96755.73;1721250;82;21174;-84
2021/03/23 03:06:04;;;;;;;21.90;12.53;;;;;;;0.24;70.10;96754.22;1723377;82;21283;-84
2021/03/23 03:08:30;;;;;;;16.85;11.30;;;;;;;0.23;69.93;96752.59;1721028;81;21168;-84
2021/03/23 03:10:56;;;;;;;21.85;11.65;;;;;;;0.26;70.20;96755.38;1725768;82;22012;-81
2021/03/23 03:13:24;;;;;;;16.50;11.22;;;;;;;0.26;70.06;96745.16;1721898;82;21141;-81
2021/03/23 03:15:53;;;;;;;18.10;11.10;;;;;;;0.25;70.12;96739.23;1724968;81;21468;-81
2021/03/23 03:18:19;;;;;;;16.27;10.43;;;;;;;0.24;69.82;96732.48;1725776;81;21140;-81
2021/03/23 03:20:45;;;;;;;16.70;10.90;;;;;;;0.25;69.65;96740.51;1724400;81;21148;-81
2021/03/23 03:23:11;;;;;;;16.95;10.70;;;;;;;0.27;69.62;96738.66;1723168;81;21147;-81
2021/03/23 03:25:37;;;;;;;16.40;10.20;;;;;;;0.32;69.47;96741.34;1723157;81;21158;-81
2021/03/23 03:28:06;;;;;;;15.85;10.05;;;;;;;0.30;69.81;96735.88;1724308;81;21125;-82
2021/03/23 03:30:32;;;;;;;14.60;9.83;;;;;;;0.36;69.52;96743.59;1721444;82;21141;-81
2021/03/23 03:32:58;;;;;;;19.20;11.63;;;;;;;0.38;69.29;96734.53;1701317;81;21282;-81
2021/03/23 03:35:30;;;;;;;17.40;10.53;;;;;;;0.39;69.36;96733.14;1714129;82;21282;-81
2021/03/23 03:37:56;;;;;;;16.35;9.50;;;;;;;0.41;69.07;96739.41;1709941;82;21167;-81
2021/03/23 03:40:30;;;;;;;15.25;9.63;;;;;;;0.44;69.18;96737.45;1711451;82;21360;-81
2021/03/23 03:42:56;;;;;;;19.20;11.08;;;;;;;0.44;69.06;96743.84;1712182;82;21168;-82
2021/03/23 03:45:23;;;;;;;15.45;10.15;;;;;;;0.43;68.90;96740.93;1710900;82;21129;-82
2021/03/23 03:47:50;;;;;;;16.73;10.68;;;;;;;0.45;69.36;96749.30;1709217;82;21164;-82
2021/03/23 03:50:17;;;;;;;15.98;10.68;;;;;;;0.43;69.32;96744.77;1714130;82;21163;-82
2021/03/23 03:52:43;;;;;;;18.27;11.60;;;;;;;0.41;69.32;96735.12;1710491;82;21129;-82
2021/03/23 03:55:12;;;;;;;18.25;11.10;;;;;;;0.41;69.59;96735.12;1690312;82;21330;-81
2021/03/23 03:57:38;;;;;;;14.50;9.70;;;;;;;0.42;69.71;96742.32;1707592;82;21249;-82
2021/03/23 04:00:05;;;;;;;18.17;11.25;;;;;;;0.40;69.38;96743.71;1711924;82;21832;-82
2021/03/23 04:02:31;;;;;;;17.57;10.90;;;;;;;0.40;69.16;96739.87;1709749;82;21187;-82
2021/03/23 04:04:57;;;;;;;17.85;10.95;;;;;;;0.41;69.41;96741.51;1710685;82;21321;-82
2021/03/23 04:07:23;;;;;;;18.27;12.18;;;;;;;0.37;69.17;96737.55;1711550;82;21267;-82
2021/03/23 04:09:49;;;;;;;19.35;11.15;;;;;;;0.39;69.17;96745.92;1707858;82;21136;-82
2021/03/23 04:12:15;;;;;;;16.32;11.00;;;;;;;0.42;69.33;96742.32;1710886;82;21296;-82
2021/03/23 04:14:41;;;;;;;16.97;10.78;;;;;;;0.41;69.32;96743.25;1711234;82;21136;-82
2021/03/23 04:17:07;;;;;;;20.62;11.78;;;;;;;0.42;69.28;96745.69;1711540;82;21159;-82
2021/03/23 04:19:33;;;;;;;16.60;10.38;;;;;;;0.40;69.10;96748.02;1711345;82;21167;-82
2021/03/23 04:21:59;;;;;;;18.00;11.70;;;;;;;0.41;69.05;96738.95;1712103;82;21315;-82
2021/03/23 04:24:25;;;;;;;19.42;11.70;;;;;;;0.41;69.23;96744.06;1712059;82;21116;-82
2021/03/23 04:26:51;;;;;;;20.23;12.15;;;;;;;0.41;69.11;96744.06;1711901;82;21113;-82
2021/03/23 04:29:17;;;;;;;21.15;13.13;;;;;;;0.44;68.94;96748.14;1711519;82;21172;-82
2021/03/23 04:31:43;;;;;;;16.35;12.30;;;;;;;0.47;68.63;96746.63;1711592;82;21153;-82
2021/03/23 04:34:14;;;;;;;19.00;12.25;;;;;;;0.48;68.55;96741.87;1724561;81;21265;-82
2021/03/23 04:36:40;;;;;;;17.60;12.65;;;;;;;0.48;68.76;96749.54;1723165;81;21121;-82
2021/03/23 04:39:10;;;;;;;17.80;10.30;;;;;;;0.46;68.74;96751.39;1726096;81;21138;-82
2021/03/23 04:41:37;;;;;;;19.55;12.23;;;;;;;0.47;68.39;96755.58;1722815;81;21288;-82
2021/03/23 04:44:04;;;;;;;15.08;9.83;;;;;;;0.47;68.82;96754.30;1698448;82;21106;-82
2021/03/23 04:46:30;;;;;;;16.37;10.72;;;;;;;0.45;68.86;96753.13;1743142;80;21137;-82
2021/03/23 04:48:56;;;;;;;18.55;11.63;;;;;;;0.44;68.79;96762.20;1714878;82;21134;-82
2021/03/23 04:51:25;;;;;;;17.73;10.78;;;;;;;0.45;68.81;96764.64;1710846;80;21106;-82
2021/03/23 04:54:04;;;;;;;21.02;12.55;;;;;;;0.47;68.81;96758.95;1727071;82;21460;-82
2021/03/23 04:56:34;;;;;;;16.60;10.43;;;;;;;0.48;68.53;96756.75;1718427;82;21289;-82
2021/03/23 04:59:00;;;;;;;14.93;11.10;;;;;;;0.51;68.20;96756.55;1717477;81;21257;-85
2021/03/23 05:01:27;;;;;;;20.70;13.18;;;;;;;0.53;68.35;96755.97;1721885;81;21259;-85
2021/03/23 05:03:54;;;;;;;42.48;26.55;;;;;;;0.56;68.32;96762.14;1711818;82;21150;-85
2021/03/23 05:06:21;;;;;;;13.90;9.13;;;;;;;0.63;68.41;96757.84;1713198;82;21308;-85
2021/03/23 05:08:47;;;;;;;18.42;11.78;;;;;;;0.64;68.43;96769.70;1749762;79;21268;-84
2021/03/23 05:11:15;;;;;;;17.55;11.35;;;;;;;0.63;68.27;96767.61;1740045;80;21162;-85
2021/03/23 05:13:42;;;;;;;17.02;10.43;;;;;;;0.66;68.71;96770.44;1694531;82;21256;-85
2021/03/23 05:16:08;;;;;;;14.68;11.50;;;;;;;0.71;69.11;96770.45;1765545;80;21094;-85
2021/03/23 05:18:34;;;;;;;23.07;18.57;;;;;;;0.75;68.54;96770.56;1725960;82;21144;-85
2021/03/23 05:21:00;;;;;;;21.15;14.50;;;;;;;0.81;68.47;96772.70;1778463;79;21566;-84
2021/03/23 05:23:26;;;;;;;22.40;15.90;;;;;;;0.86;67.74;96767.23;1780009;79;21091;-85
2021/03/23 05:25:52;;;;;;;21.97;13.60;;;;;;;0.89;67.88;96774.22;1776462;79;21328;-85
2021/03/23 05:28:18;;;;;;;15.58;9.98;;;;;;;0.95;67.41;96766.55;1779725;79;21153;-82
2021/03/23 05:30:44;;;;;;;20.17;17.87;;;;;;;0.99;67.16;96759.48;1769971;79;21130;-82
2021/03/23 05:33:11;;;;;;;27.15;18.60;;;;;;;1.01;67.02;96758.91;1773966;79;21146;-82
2021/03/23 05:35:37;;;;;;;20.60;16.90;;;;;;;1.09;66.98;96759.13;1772357;79;21093;-82
2021/03/23 05:38:04;;;;;;;16.80;12.90;;;;;;;1.18;66.59;96763.12;1782529;79;21359;-82
2021/03/23 05:40:45;;;;;;;17.67;13.13;;;;;;;1.19;66.63;96750.67;1780202;79;21145;-82
2021/03/23 05:43:32;;;;;;;26.33;19.45;;;;;;;1.31;66.81;96763.02;1779464;79;21438;-83
2021/03/23 05:46:04;;;;;;;20.55;13.95;;;;;;;1.38;66.57;96765.45;1728198;82;21114;-85
2021/03/23 05:48:33;;;;;;;16.50;11.33;;;;;;;1.43;66.62;96771.04;1723993;82;21244;-85
2021/03/23 05:51:22;;;;;;;25.10;14.83;;;;;;;1.46;66.57;96771.27;1742466;80;21102;-86
2021/03/23 05:54:20;;;;;;;29.20;24.23;;;;;;;1.46;66.18;96769.55;1702480;82;21158;-85
2021/03/23 05:56:54;;;;;;;20.72;17.10;;;;;;;1.52;66.26;96778.97;1749764;80;21121;-85
2021/03/23 05:59:29;;;;;;;19.67;13.43;;;;;;;1.58;66.23;96778.50;1743703;80;21153;-86
2021/03/23 06:01:58;;;;;;;22.42;14.05;;;;;;;1.63;66.04;96781.55;1723648;80;21692;-82
2021/03/23 06:04:35;;;;;;;23.45;14.40;;;;;;;1.70;65.94;96789.09;1730508;82;21173;-82
2021/03/23 06:07:05;;;;;;;28.62;16.65;;;;;;;1.76;65.95;96791.18;1728322;81;21138;-82
2021/03/23 06:09:38;;;;;;;24.20;13.93;;;;;;;1.80;65.83;96788.29;1728300;81;21618;-83
2021/03/23 06:12:21;;;;;;;19.32;11.35;;;;;;;1.82;65.58;96793.77;1723128;81;21119;-82
2021/03/23 06:15:32;;;;;;;18.45;10.53;;;;;;;1.86;65.50;96783.62;1732565;81;21251;-82
2021/03/23 06:18:22;;;;;;;25.02;13.10;;;;;;;1.90;65.25;96790.13;1734789;81;21150;-82
2021/03/23 06:21:05;;;;;;;18.85;10.75;;;;;;;1.87;65.29;96779.66;1729199;81;21741;-85
2021/03/23 06:23:37;;;;;;;17.23;10.90;;;;;;;1.95;64.95;96786.73;1733897;81;21593;-85
2021/03/23 06:26:12;;;;;;;16.57;10.53;;;;;;;1.98;65.01;96778.84;1728299;81;21384;-82
2021/03/23 06:29:18;;;;;;;15.50;10.03;;;;;;;1.97;65.16;96780.59;1706039;81;21114;-82
2021/03/23 06:32:13;;;;;;;15.40;9.53;;;;;;;2.00;65.22;96784.19;1723738;81;21170;-82
2021/03/23 06:34:39;;;;;;;18.62;10.35;;;;;;;2.06;65.21;96782.41;1740146;80;21111;-86
2021/03/23 06:37:28;;;;;;;15.15;9.75;;;;;;;2.13;65.24;96780.21;1760513;79;22226;-85
2021/03/23 06:39:54;;;;;;;13.62;10.68;;;;;;;2.20;65.27;96780.53;1784216;79;21375;-87
2021/03/23 06:42:37;;;;;;;110.97;55.33;;;;;;;2.30;65.19;96780.98;1782848;79;21228;-87
2021/03/23 06:45:21;;;;;;;48.60;28.15;;;;;;;2.36;64.91;96781.77;1768711;79;21117;-87
2021/03/23 06:47:49;;;;;;;34.23;20.27;;;;;;;2.43;65.05;96785.13;1780368;79;21125;-85
2021/03/23 06:50:29;;;;;;;19.35;12.78;;;;;;;2.53;65.08;96783.47;1738348;80;21161;-86
2021/03/23 06:53:09;;;;;;;24.70;15.10;;;;;;;2.60;64.34;96782.03;1671241;82;21289;-86
2021/03/23 06:55:36;;;;;;;39.30;22.93;;;;;;;2.68;64.49;96783.53;1781220;79;21158;-86
2021/03/23 06:58:23;;;;;;;34.73;21.23;;;;;;;2.79;64.52;96788.62;1782017;79;21415;-86
2021/03/23 07:01:12;;;;;;;16.40;12.28;;;;;;;2.89;64.46;96786.11;1776362;79;21271;-86
2021/03/23 07:03:38;;;;;;;30.27;16.77;;;;;;;2.95;63.90;96793.33;1767047;79;21341;-86
2021/03/23 07:06:26;;;;;;;38.02;20.75;;;;;;;3.01;64.07;96796.67;1776971;79;21054;-86
2021/03/23 07:09:18;;;;;;;23.62;14.35;;;;;;;3.09;63.91;96794.31;1785458;79;21078;-83
2021/03/23 07:11:56;;;;;;;42.98;26.90;;;;;;;3.11;63.46;96799.32;1783624;79;21141;-82
2021/03/23 07:14:31;;;;;;;29.98;17.98;;;;;;;3.17;63.85;96802.19;1744413;80;21158;-82
2021/03/23 07:17:12;;;;;;;20.37;11.93;;;;;;;3.21;63.41;96803.56;1744062;82;21225;-82
2021/03/23 07:19:46;;;;;;;18.75;10.45;;;;;;;3.25;63.14;96807.97;1739789;82;21325;-83
2021/03/23 07:22:34;;;;;;;18.42;11.15;;;;;;;3.27;62.97;96798.41;1739401;82;21337;-82
2021/03/23 07:25:01;;;;;;;16.55;11.20;;;;;;;3.29;62.97;96802.95;1720922;82;21332;-83
2021/03/23 07:27:29;;;;;;;16.77;9.05;;;;;;;3.28;63.25;96794.90;1725024;81;21100;-86
2021/03/23 07:30:27;;;;;;;17.12;11.12;;;;;;;3.28;62.86;96800.84;1700845;82;21161;-87
2021/03/23 07:32:57;;;;;;;24.52;12.95;;;;;;;3.31;63.02;96799.78;1782428;79;21236;-86
2021/03/23 07:35:28;;;;;;;25.90;14.65;;;;;;;3.33;62.86;96801.75;1775808;79;21251;-86
2021/03/23 07:38:05;;;;;;;25.40;11.95;;;;;;;3.33;62.94;96804.31;1784679;79;21474;-86
2021/03/23 07:40:46;;;;;;;21.05;12.68;;;;;;;3.35;62.96;96807.56;1753395;80;21280;-86
2021/03/23 07:43:18;;;;;;;21.07;14.58;;;;;;;3.40;62.48;96804.61;1706731;82;21147;-86
2021/03/23 07:45:53;;;;;;;22.10;14.33;;;;;;;3.40;62.88;96799.00;1697741;83;21275;-86
2021/03/23 07:48:34;;;;;;;23.40;14.53;;;;;;;3.43;62.86;96803.91;1753433;80;21160;-86
2021/03/23 07:51:05;;;;;;;18.25;10.10;;;;;;;3.48;62.78;96804.33;1753429;80;21105;-86
2021/03/23 07:53:40;;;;;;;19.82;11.63;;;;;;;3.49;62.57;96803.39;1753071;80;21133;-86
2021/03/23 07:56:27;;;;;;;19.87;11.28;;;;;;;3.47;62.68;96800.14;1755426;80;21249;-86
2021/03/23 07:59:11;;;;;;;20.52;10.65;;;;;;;3.47;62.83;96800.61;1752909;80;21293;-86
2021/03/23 08:01:52;;;;;;;22.65;11.15;;;;;;;3.48;63.09;96805.62;1722166;80;21081;-87
2021/03/23 08:04:49;;;;;;;16.60;10.45;;;;;;;3.53;63.03;96797.52;1755316;80;21109;-87
2021/03/23 08:10:18;;;;;;;18.37;10.88;;;;;;;3.83;62.27;96795.42;1816403;76;22931;-82
2021/03/23 08:13:25;;;;;;;16.70;10.18;;;;;;;3.89;62.46;96798.75;1814122;78;21153;-82
2021/03/23 08:16:10;;;;;;;15.32;9.35;;;;;;;4.05;61.84;96800.36;1759542;80;21113;-82
2021/03/23 08:19:03;;;;;;;24.70;15.88;;;;;;;4.35;61.86;96805.11;1747684;81;21439;-82
2021/03/23 08:21:51;;;;;;;22.50;15.25;;;;;;;4.65;61.58;96801.63;1761201;81;21129;-82
2021/03/23 08:24:57;;;;;;;24.23;15.80;;;;;;;4.96;61.42;96804.41;1756221;81;21356;-82
2021/03/23 08:27:53;;;;;;;34.78;22.55;;;;;;;5.04;60.52;96810.16;1759308;80;21242;-82
2021/03/23 08:30:56;;;;;;;19.10;9.93;;;;;;;4.93;60.49;96804.69;1783842;79;21134;-82
2021/03/23 08:33:42;;;;;;;34.03;18.73;;;;;;;4.83;60.08;96800.01;1748721;80;21073;-82
2021/03/23 08:36:31;;;;;;;26.05;12.95;;;;;;;4.68;60.63;96815.04;1750754;81;21357;-82
2021/03/23 08:39:33;;;;;;;60.73;33.90;;;;;;;4.57;60.23;96815.66;1695450;81;21156;-82
2021/03/23 08:42:20;;;;;;;23.73;15.90;;;;;;;4.44;60.73;96813.33;1753644;81;21121;-82
2021/03/23 08:44:55;;;;;;;19.30;12.47;;;;;;;4.32;61.13;96811.34;1755695;81;21141;-82
2021/03/23 08:47:42;;;;;;;20.57;12.33;;;;;;;4.30;61.15;96809.84;1759628;81;21317;-82
2021/03/23 08:50:25;;;;;;;20.88;11.00;;;;;;;4.19;61.22;96807.71;1731659;81;21363;-82
2021/03/23 08:52:56;;;;;;;17.77;11.48;;;;;;;4.08;61.27;96805.73;1757565;81;21223;-82
2021/03/23 08:58:17;;;;;;;20.72;13.85;;;;;;;3.90;61.76;96818.38;1809711;76;28104;-82
2021/03/23 09:01:01;;;;;;;24.23;16.02;;;;;;;3.92;61.69;96822.94;1847636;77;21109;-82
2021/03/23 09:03:44;;;;;;;23.80;14.53;;;;;;;3.85;61.15;96816.20;1845882;77;21086;-82
2021/03/23 09:06:18;;;;;;;22.02;12.63;;;;;;;3.70;61.97;96805.10;1849406;77;21051;-82
2021/03/23 09:08:51;;;;;;;27.00;15.05;;;;;;;3.66;62.23;96817.41;1823343;77;21224;-82
2021/03/23 09:11:40;;;;;;;23.07;13.70;;;;;;;3.58;62.36;96822.38;1845755;77;21418;-82
2021/03/23 09:14:14;;;;;;;24.40;13.08;;;;;;;3.51;62.35;96820.77;1851645;76;21109;-82
2021/03/23 09:17:01;;;;;;;23.32;13.13;;;;;;;3.44;62.88;96814.53;1848771;77;21252;-82
2021/03/23 09:19:47;;;;;;;18.85;12.55;;;;;;;3.42;63.02;96826.69;1842341;77;21212;-82
2021/03/23 09:22:24;;;;;;;23.35;14.28;;;;;;;3.37;63.15;96818.52;1848866;77;21073;-82
2021/03/23 09:25:13;;;;;;;22.85;13.15;;;;;;;3.35;63.45;96820.41;1849588;77;21074;-82
2021/03/23 09:27:51;;;;;;;25.90;16.77;;;;;;;3.35;63.36;96820.88;1849467;76;21058;-85
2021/03/23 09:30:37;;;;;;;25.65;15.53;;;;;;;3.34;63.61;96817.97;1847368;77;21338;-85
2021/03/23 09:33:23;;;;;;;27.42;15.35;;;;;;;3.36;63.85;96818.66;1845185;77;21366;-85
2021/03/23 09:36:12;;;;;;;23.35;14.30;;;;;;;3.31;64.12;96814.72;1846759;77;21140;-85
2021/03/23 09:38:53;;;;;;;20.27;12.98;;;;;;;3.33;64.42;96814.59;1847167;76;21082;-82
2021/03/23 09:41:36;;;;;;;27.07;16.15;;;;;;;3.27;64.13;96822.34;1844559;76;21066;-82
2021/03/23 09:44:22;;;;;;;27.37;15.20;;;;;;;3.24;64.71;96820.47;1788469;78;21141;-82
2021/03/23 09:46:53;;;;;;;26.48;15.48;;;;;;;3.26;65.10;96821.18;1812252;78;21246;-82
2021/03/23 09:49:46;;;;;;;23.85;15.80;;;;;;;3.27;65.64;96822.81;1796887;79;21113;-82
2021/03/23 09:52:19;;;;;;;30.27;15.90;;;;;;;3.26;65.99;96825.03;1793969;79;21133;-82
2021/03/23 09:54:53;;;;;;;;;;;;;;;3.22;66.37;96816.74;1796289;79;21093;-82
2021/03/23 09:57:25;;;;;;;28.20;16.15;;;;;;;3.12;67.35;96821.02;1781730;79;20171;-81
2021/03/23 09:59:57;;;;;;;28.12;15.70;;;;;;;2.98;67.75;96824.70;1783510;80;21150;-82
2021/03/23 10:02:30;;;;;;;31.82;17.85;;;;;;;2.92;68.37;96824.36;1776558;80;21079;-82
2021/03/23 10:05:15;;;;;;;37.03;22.42;;;;;;;2.90;68.44;96817.25;1775877;80;21114;-82
2021/03/23 10:07:42;;;;;;;30.88;19.07;;;;;;;2.92;68.77;96811.05;1764291;80;21356;-82
2021/03/23 10:10:28;;;;;;;31.80;20.12;;;;;;;2.97;68.70;96815.37;1776673;80;21163;-82
2021/03/23 10:12:57;;;;;;;33.65;18.55;;;;;;;2.97;68.97;96819.22;1778506;80;21129;-82
2021/03/23 10:15:39;;;;;;;29.45;18.67;;;;;;;2.98;69.25;96814.90;1780825;80;21252;-82
2021/03/23 10:18:22;;;;;;;32.48;20.48;;;;;;;2.95;69.46;96818.53;1778121;80;21347;-82
2021/03/23 10:21:01;;;;;;;33.02;20.95;;;;;;;2.96;69.88;96819.34;1775264;80;21154;-82
2021/03/23 10:23:29;;;;;;;31.73;21.17;;;;;;;2.90;70.20;96819.82;1777426;80;21364;-82
2021/03/23 10:25:57;;;;;;;45.88;28.38;;;;;;;2.90;70.54;96820.64;1773387;80;21638;-82
2021/03/23 10:28:33;;;;;;;37.38;22.37;;;;;;;2.95;71.08;96821.57;1772107;80;21114;-82
2021/03/23 10:31:11;;;;;;;35.28;23.02;;;;;;;2.93;70.97;96818.31;1775762;80;21137;-82
2021/03/23 10:33:39;;;;;;;39.58;25.32;;;;;;;2.92;71.37;96814.91;1768777;80;21141;-82
2021/03/23 10:36:09;;;;;;;38.45;24.60;;;;;;;2.98;71.57;96822.59;1760314;80;21138;-82
2021/03/23 10:38:44;;;;;;;40.70;24.32;;;;;;;3.00;71.74;96821.53;1779348;80;21257;-82
2021/03/23 10:41:24;;;;;;;41.15;25.88;;;;;;;3.04;71.99;96809.73;1774486;80;21110;-86
2021/03/23 10:43:52;;;;;;;36.33;25.85;;;;;;;2.95;72.12;96819.81;1780030;80;21325;-86
2021/03/23 10:46:41;;;;;;;38.60;23.92;;;;;;;2.93;72.47;96820.41;1780104;80;21437;-87
2021/03/23 10:49:26;;;;;;;43.30;26.40;;;;;;;2.98;72.47;96820.84;1781531;80;21094;-86
2021/03/23 10:51:59;;;;;;;45.38;28.87;;;;;;;3.07;72.49;96808.19;1779528;80;21333;-86
2021/03/23 10:54:35;;;;;;;45.75;30.25;;;;;;;3.11;72.83;96817.30;1779241;80;21376;-86
2021/03/23 10:57:33;;;;;;;45.58;29.23;;;;;;;3.14;72.87;96817.04;1780059;80;21126;-87
2021/03/23 11:00:26;;;;;;;44.42;29.48;;;;;;;3.14;72.94;96814.47;1786570;80;21287;-82
2021/03/23 11:02:53;;;;;;;37.70;26.93;;;;;;;3.15;73.08;96820.77;1786147;80;21086;-82
2021/03/23 11:05:21;;;;;;;44.18;28.90;;;;;;;3.13;73.02;96821.36;1786043;80;21228;-82
2021/03/23 11:08:01;;;;;;;43.45;28.67;;;;;;;3.09;73.06;96822.55;1822869;77;21094;-82
2021/03/23 11:10:34;;;;;;;45.17;28.65;;;;;;;3.09;73.27;96824.28;1823491;78;21256;-82
2021/03/23 11:13:00;;;;;;;45.05;31.20;;;;;;;3.10;73.31;96830.60;1823672;78;21372;-82
2021/03/23 11:15:35;;;;;;;47.75;29.30;;;;;;;3.08;73.55;96834.20;1822091;78;21110;-82
2021/03/23 11:18:01;;;;;;;43.17;30.90;;;;;;;3.01;73.62;96844.98;1823529;78;21098;-86
2021/03/23 11:20:37;;;;;;;47.70;31.52;;;;;;;3.01;73.90;96844.17;1823493;78;21247;-85
2021/03/23 11:23:44;;;;;;;43.95;29.27;;;;;;;2.95;73.97;96842.11;1785399;80;21132;-83
2021/03/23 11:26:15;;;;;;;43.50;29.52;;;;;;;2.90;74.13;96842.92;1819325;77;21240;-82
2021/03/23 11:28:41;;;;;;;41.30;28.60;;;;;;;2.85;74.47;96842.02;1822589;78;21093;-82
2021/03/23 11:31:08;;;;;;;42.45;30.32;;;;;;;2.82;74.54;96842.27;1823540;77;21273;-82
2021/03/23 11:33:37;;;;;;;41.95;31.00;;;;;;;2.84;74.70;96844.70;1823830;78;21360;-86
2021/03/23 11:36:05;;;;;;;47.27;33.98;;;;;;;2.83;74.90;96841.80;1735059;82;21155;-82
2021/03/23 11:38:31;;;;;;;41.75;28.52;;;;;;;2.86;74.99;96840.27;1823437;77;21109;-85
2021/03/23 11:40:58;;;;;;;45.23;30.45;;;;;;;2.80;75.34;96847.18;1809625;78;21121;-85
2021/03/23 11:43:32;;;;;;;45.55;31.97;;;;;;;2.76;75.40;96847.05;1824931;77;21082;-85
2021/03/23 11:46:03;;;;;;;46.23;31.48;;;;;;;2.75;75.55;96837.26;1818801;77;21189;-84
2021/03/23 11:48:32;;;;;;;46.83;30.48;;;;;;;2.79;75.63;96839.95;1823159;77;21094;-86
2021/03/23 11:51:00;;;;;;;43.95;30.43;;;;;;;2.76;75.91;96840.17;1821017;77;21075;-86
2021/03/23 11:53:27;;;;;;;40.58;29.05;;;;;;;2.75;75.88;96840.30;1779900;78;21311;-86
2021/03/23 11:55:53;;;;;;;41.60;28.20;;;;;;;2.77;76.02;96828.19;1819364;77;21228;-86
2021/03/23 11:58:20;;;;;;;40.73;30.72;;;;;;;2.75;76.05;96838.54;1839921;77;21454;-86